Time;durP1;ratioP1;P1;durP2;ratioP2;P2;SDS_P1;SDS_P2;PMS_P1;PMS_P2;Temp;Humidity;BMP_temperature;BMP_pressure;BME280_temperature;BME280_humidity;BME280_pressure;Samples;Min_cycle;Max_cycle;Signal;HPM_P1;HPM_P2
2024/01/08 00:01:23;;;;;;;26.37;18.57;;;12.30;49.50;;;;;;4595377;19;20397;-72
2024/01/08 00:02:58;;;;;;;25.43;16.67;;;12.30;49.50;;;;;;4594327;19;20369;-72
2024/01/08 00:04:34;;;;;;;25.37;17.60;;;12.30;49.40;;;;;;4595641;19;20430;-72
2024/01/08 00:06:08;;;;;;;25.40;19.00;;;12.20;49.10;;;;;;4593855;19;20481;-72
2024/01/08 00:07:42;;;;;;;23.97;17.80;;;12.20;49.50;;;;;;4595424;19;20456;-72
2024/01/08 00:09:18;;;;;;;28.20;19.13;;;12.20;49.70;;;;;;4594201;19;20414;-72
2024/01/08 00:10:53;;;;;;;25.57;18.90;;;12.20;49.60;;;;;;4595173;19;20718;-72
2024/01/08 00:12:27;;;;;;;23.23;18.10;;;12.20;49.40;;;;;;4595672;19;20484;-72
2024/01/08 00:14:06;;;;;;;25.07;17.53;;;12.20;49.60;;;;;;4595735;19;20410;-72
2024/01/08 00:15:40;;;;;;;26.03;18.87;;;12.10;49.60;;;;;;4594557;19;20440;-72
2024/01/08 00:17:14;;;;;;;23.70;16.87;;;12.20;49.70;;;;;;4595239;19;20478;-72
2024/01/08 00:18:49;;;;;;;26.43;18.57;;;12.10;49.40;;;;;;4595307;19;20401;-72
2024/01/08 00:20:24;;;;;;;28.33;18.67;;;12.20;49.50;;;;;;4595269;19;20415;-72
2024/01/08 00:21:58;;;;;;;25.43;18.07;;;12.10;49.50;;;;;;4593977;19;20492;-72
2024/01/08 00:23:35;;;;;;;25.07;17.83;;;12.10;49.30;;;;;;4594988;19;20357;-72
2024/01/08 00:25:09;;;;;;;27.63;17.97;;;12.10;49.20;;;;;;4595200;19;20397;-72
2024/01/08 00:26:43;;;;;;;27.40;17.83;;;12.10;49.50;;;;;;4594561;19;20404;-72
2024/01/08 00:28:20;;;;;;;25.63;17.93;;;12.10;49.90;;;;;;4595207;19;20373;-72
2024/01/08 00:29:55;;;;;;;25.53;17.70;;;12.10;49.70;;;;;;4595367;19;20738;-72
2024/01/08 00:31:29;;;;;;;27.70;19.17;;;12.10;50.50;;;;;;4595031;19;20979;-72
2024/01/08 00:33:05;;;;;;;28.43;18.60;;;12.10;51.90;;;;;;4595055;19;20386;-72
2024/01/08 00:34:41;;;;;;;28.43;20.10;;;12.10;52.60;;;;;;4594942;19;20409;-72
2024/01/08 00:36:15;;;;;;;25.17;17.17;;;12.10;52.90;;;;;;4593909;19;20713;-72
2024/01/08 00:37:50;;;;;;;27.07;18.70;;;12.10;52.30;;;;;;4595413;19;20393;-72
2024/01/08 00:39:27;;;;;;;28.27;19.20;;;12.10;52.00;;;;;;4594870;19;20420;-72
2024/01/08 00:41:01;;;;;;;27.10;19.80;;;12.10;52.10;;;;;;4594933;19;20407;-72
2024/01/08 00:42:37;;;;;;;27.37;18.80;;;12.10;51.40;;;;;;4595148;19;20889;-72
2024/01/08 00:44:11;;;;;;;29.70;19.00;;;12.10;51.00;;;;;;4594750;19;20405;-72
2024/01/08 00:45:45;;;;;;;29.37;19.17;;;12.00;50.70;;;;;;4594186;19;20452;-72
2024/01/08 00:47:20;;;;;;;28.87;20.60;;;12.00;50.70;;;;;;4592336;19;20429;-72
2024/01/08 00:48:54;;;;;;;28.90;19.67;;;12.00;50.50;;;;;;4594295;19;20385;-72
2024/01/08 00:50:28;;;;;;;30.17;20.50;;;12.00;50.70;;;;;;4594641;19;20527;-72
2024/01/08 00:52:03;;;;;;;28.33;20.00;;;12.00;50.40;;;;;;4594640;19;20435;-72
2024/01/08 00:53:38;;;;;;;28.57;20.10;;;12.00;50.30;;;;;;4594826;19;20443;-72
2024/01/08 00:55:13;;;;;;;29.87;20.43;;;12.00;50.20;;;;;;4592988;19;20503;-72
2024/01/08 00:56:48;;;;;;;30.90;20.17;;;12.00;50.20;;;;;;4593194;19;20397;-72
2024/01/08 00:58:23;;;;;;;29.07;19.93;;;11.90;50.30;;;;;;4594162;19;20397;-72
2024/01/08 00:59:56;;;;;;;32.73;20.77;;;12.00;50.10;;;;;;4594453;19;20460;-72
2024/01/08 01:15:24;;;;;;;27.10;18.53;;;11.90;50.50;;;;;;4579391;19;20905;-73
2024/01/08 01:16:59;;;;;;;28.63;19.87;;;11.90;49.60;;;;;;4592770;19;20489;-73
2024/01/08 01:18:33;;;;;;;25.30;18.97;;;11.90;49.50;;;;;;4593811;19;20730;-73
2024/01/08 01:20:08;;;;;;;31.50;19.80;;;11.90;49.50;;;;;;4594134;19;20436;-71
2024/01/08 01:21:43;;;;;;;29.17;20.57;;;11.90;49.80;;;;;;4594176;19;20382;-73
2024/01/08 01:23:17;;;;;;;27.90;19.17;;;11.90;49.60;;;;;;4594051;19;20396;-73
2024/01/08 01:24:52;;;;;;;24.47;17.17;;;11.90;49.50;;;;;;4593369;19;20437;-72
2024/01/08 01:26:28;;;;;;;27.23;18.83;;;11.80;49.40;;;;;;4593549;19;20517;-73
2024/01/08 01:28:03;;;;;;;26.17;18.53;;;11.80;49.50;;;;;;4593998;19;20432;-73
2024/01/08 01:29:37;;;;;;;25.33;17.83;;;11.80;49.30;;;;;;4593896;19;20400;-72
2024/01/08 01:31:12;;;;;;;30.07;20.67;;;11.80;49.30;;;;;;4592568;19;20411;-73
2024/01/08 01:32:46;;;;;;;27.20;19.33;;;11.80;49.30;;;;;;4593753;19;20405;-72
2024/01/08 01:34:20;;;;;;;28.03;19.20;;;11.90;49.30;;;;;;4593594;19;20397;-71
2024/01/08 01:35:55;;;;;;;25.93;17.97;;;11.90;49.30;;;;;;4594255;19;20962;-72
2024/01/08 01:37:29;;;;;;;25.60;19.20;;;11.90;49.30;;;;;;4593750;19;20389;-73
2024/01/08 01:39:04;;;;;;;28.97;20.30;;;11.90;49.40;;;;;;4593638;19;20385;-71
2024/01/08 01:40:39;;;;;;;30.73;20.40;;;11.90;49.30;;;;;;4593640;19;20927;-73
2024/01/08 01:42:13;;;;;;;28.90;19.70;;;11.90;49.30;;;;;;4592223;19;20397;-72
2024/01/08 01:43:47;;;;;;;26.20;18.53;;;11.90;49.00;;;;;;4592268;19;20435;-73
2024/01/08 01:45:23;;;;;;;26.30;18.53;;;11.90;49.30;;;;;;4592127;19;20429;-72
2024/01/08 01:46:57;;;;;;;28.43;20.37;;;11.90;49.20;;;;;;4592755;19;20413;-72
2024/01/08 01:48:31;;;;;;;25.90;18.50;;;11.90;49.30;;;;;;4593416;19;20393;-72
2024/01/08 01:50:07;;;;;;;27.60;18.17;;;11.90;49.30;;;;;;4594239;19;20420;-71
2024/01/08 01:51:42;;;;;;;23.87;16.57;;;11.90;49.50;;;;;;4592414;19;20460;-73
2024/01/08 01:53:17;;;;;;;24.83;17.17;;;11.90;49.10;;;;;;4593067;19;20437;-73
2024/01/08 01:54:53;;;;;;;22.37;17.03;;;11.90;49.30;;;;;;4592778;19;20429;-71
2024/01/08 01:56:27;;;;;;;26.43;17.00;;;11.90;48.80;;;;;;4593334;19;20429;-73
2024/01/08 01:58:01;;;;;;;23.60;16.87;;;11.90;49.00;;;;;;4591977;19;20397;-73
2024/01/08 01:59:36;;;;;;;24.13;17.93;;;11.90;49.10;;;;;;4593225;19;20409;-71
2024/01/08 02:01:10;;;;;;;25.70;17.73;;;11.90;49.10;;;;;;4593204;19;20397;-71
2024/01/08 02:02:44;;;;;;;26.13;18.90;;;11.90;49.20;;;;;;4593202;19;20430;-72
2024/01/08 02:04:20;;;;;;;23.23;17.60;;;11.90;49.10;;;;;;4592999;19;20381;-71
2024/01/08 02:05:54;;;;;;;22.43;17.17;;;11.90;48.90;;;;;;4593124;19;20404;-71
2024/01/08 02:07:28;;;;;;;24.97;17.77;;;11.90;49.00;;;;;;4590664;19;20475;-73
2024/01/08 02:09:04;;;;;;;23.30;17.57;;;11.90;49.00;;;;;;4592814;19;20384;-71
2024/01/08 02:10:42;;;;;;;23.70;16.93;;;11.90;49.00;;;;;;4592023;19;20427;-71
2024/01/08 02:12:20;;;;;;;24.80;17.83;;;11.90;48.90;;;;;;4591701;19;20433;-71
2024/01/08 02:13:55;;;;;;;23.00;17.90;;;11.90;48.80;;;;;;4591901;19;20374;-71
2024/01/08 02:15:29;;;;;;;24.47;16.83;;;11.90;48.90;;;;;;4589251;19;20560;-71
2024/01/08 02:17:05;;;;;;;21.17;15.57;;;11.90;49.00;;;;;;4592791;19;20412;-71
2024/01/08 02:18:40;;;;;;;21.67;16.83;;;12.00;49.00;;;;;;4591637;19;20400;-73
2024/01/08 02:20:14;;;;;;;24.93;17.97;;;11.90;48.70;;;;;;4592508;19;20385;-73
2024/01/08 02:21:49;;;;;;;24.23;15.50;;;11.90;48.90;;;;;;4592810;19;20507;-73
2024/01/08 02:23:24;;;;;;;24.83;17.43;;;11.90;49.00;;;;;;4592901;19;20456;-73
2024/01/08 02:25:00;;;;;;;23.10;16.50;;;11.90;48.90;;;;;;4592158;19;21010;-73
2024/01/08 02:26:36;;;;;;;24.07;17.30;;;11.90;48.80;;;;;;4592260;19;20409;-73
2024/01/08 02:28:12;;;;;;;24.10;16.17;;;11.90;48.80;;;;;;4591433;19;20690;-73
2024/01/08 02:29:46;;;;;;;24.53;18.17;;;11.90;48.90;;;;;;4592324;19;20411;-73
2024/01/08 02:31:20;;;;;;;25.20;17.60;;;11.90;48.70;;;;;;4592640;19;20436;-73
2024/01/08 02:32:56;;;;;;;21.73;17.03;;;11.90;48.90;;;;;;4591575;19;20369;-73
2024/01/08 02:34:30;;;;;;;23.40;17.20;;;11.90;48.70;;;;;;4591910;19;20963;-73
2024/01/08 02:36:05;;;;;;;22.03;16.93;;;11.90;48.60;;;;;;4592513;19;20409;-73
2024/01/08 02:37:40;;;;;;;26.23;18.17;;;11.90;48.60;;;;;;4592580;19;20488;-73
2024/01/08 02:39:14;;;;;;;21.17;16.50;;;11.90;48.70;;;;;;4592463;19;20434;-73
2024/01/08 02:40:49;;;;;;;22.53;16.90;;;11.90;48.60;;;;;;4592731;19;20787;-73
2024/01/08 02:42:24;;;;;;;24.20;17.23;;;11.90;48.80;;;;;;4592506;19;20687;-73
2024/01/08 02:43:58;;;;;;;21.33;16.70;;;11.80;48.80;;;;;;4592454;19;20527;-73
2024/01/08 02:45:32;;;;;;;20.83;16.83;;;11.90;48.90;;;;;;4591367;19;20483;-73
2024/01/08 02:47:07;;;;;;;22.23;16.50;;;11.80;48.80;;;;;;4591517;19;20429;-72
2024/01/08 02:48:41;;;;;;;23.50;18.00;;;11.80;48.80;;;;;;4592313;19;20436;-73
2024/01/08 02:50:15;;;;;;;25.47;17.17;;;11.90;48.70;;;;;;4590991;19;20487;-73
2024/01/08 02:51:50;;;;;;;26.90;19.27;;;11.80;48.80;;;;;;4592002;19;20698;-73
2024/01/08 02:53:25;;;;;;;26.20;18.50;;;11.80;48.60;;;;;;4592213;19;20411;-73
2024/01/08 02:54:59;;;;;;;22.77;16.70;;;11.80;48.50;;;;;;4591840;19;20479;-73
2024/01/08 02:56:35;;;;;;;28.57;19.97;;;11.80;48.60;;;;;;4592502;19;20413;-73
2024/01/08 02:58:09;;;;;;;28.70;19.60;;;11.80;48.60;;;;;;4592137;19;20385;-73
2024/01/08 02:59:43;;;;;;;24.93;17.67;;;11.80;48.80;;;;;;4590805;19;20381;-73
2024/01/08 03:01:19;;;;;;;25.77;17.97;;;11.80;48.60;;;;;;4591779;19;20389;-73
2024/01/08 03:02:53;;;;;;;25.03;17.83;;;11.80;48.60;;;;;;4592060;19;20409;-73
2024/01/08 03:04:27;;;;;;;23.90;17.87;;;11.80;48.60;;;;;;4591993;19;20396;-73
2024/01/08 03:06:03;;;;;;;25.63;17.27;;;11.80;48.70;;;;;;4592078;19;20365;-73
2024/01/08 03:07:37;;;;;;;22.90;17.00;;;11.80;48.40;;;;;;4591140;19;20419;-73
2024/01/08 03:09:12;;;;;;;22.00;16.73;;;11.90;48.60;;;;;;4591968;19;20939;-73
2024/01/08 03:10:48;;;;;;;26.87;17.93;;;11.80;48.50;;;;;;4592027;19;20438;-73
2024/01/08 03:12:22;;;;;;;24.13;16.80;;;11.80;48.50;;;;;;4592193;19;20422;-73
2024/01/08 03:13:56;;;;;;;24.03;17.40;;;11.80;48.60;;;;;;4591877;19;20401;-73
2024/01/08 03:15:31;;;;;;;21.90;17.13;;;11.80;48.40;;;;;;4590848;19;20900;-73
2024/01/08 03:17:05;;;;;;;23.40;17.47;;;11.80;48.40;;;;;;4592087;19;20393;-73
2024/01/08 03:18:39;;;;;;;25.80;17.00;;;11.80;48.40;;;;;;4591876;19;20420;-73
2024/01/08 03:20:15;;;;;;;24.30;17.00;;;11.80;48.30;;;;;;4591819;19;20887;-73
2024/01/08 03:21:48;;;;;;;24.37;17.23;;;11.80;48.20;;;;;;4590471;19;20400;-73
2024/01/08 03:23:22;;;;;;;23.47;17.00;;;11.80;48.30;;;;;;4591354;19;20442;-73
2024/01/08 03:24:58;;;;;;;22.90;16.90;;;11.80;48.20;;;;;;4591127;19;20421;-73
2024/01/08 03:26:32;;;;;;;25.93;18.10;;;11.80;48.20;;;;;;4592864;19;20459;-73
2024/01/08 03:28:06;;;;;;;23.27;16.33;;;11.70;48.30;;;;;;4596405;19;20388;-73
2024/01/08 03:29:42;;;;;;;23.67;18.17;;;11.80;48.20;;;;;;4595108;19;20365;-73
2024/01/08 03:31:16;;;;;;;26.53;18.20;;;11.80;48.40;;;;;;4596020;19;20400;-73
2024/01/08 03:32:50;;;;;;;22.10;17.13;;;11.80;48.30;;;;;;4596313;19;20420;-73
2024/01/08 03:34:25;;;;;;;23.00;16.60;;;11.80;48.20;;;;;;4594629;19;20404;-73
2024/01/08 03:35:59;;;;;;;23.40;17.67;;;11.80;48.30;;;;;;4596140;19;20393;-73
2024/01/08 03:37:34;;;;;;;22.10;17.07;;;11.80;48.10;;;;;;4596180;19;20765;-73
2024/01/08 03:39:09;;;;;;;22.87;17.47;;;11.80;48.10;;;;;;4596250;19;20377;-73
2024/01/08 03:40:44;;;;;;;24.70;18.30;;;11.80;48.30;;;;;;4596133;19;20415;-73
2024/01/08 03:42:19;;;;;;;24.33;17.77;;;11.80;48.20;;;;;;4596131;19;20427;-73
2024/01/08 03:43:54;;;;;;;24.83;18.53;;;11.80;48.30;;;;;;4596084;19;20733;-73
2024/01/08 03:45:28;;;;;;;23.57;16.87;;;11.80;48.30;;;;;;4593243;19;20485;-73
2024/01/08 03:47:02;;;;;;;23.23;16.87;;;11.70;48.10;;;;;;4594822;19;20740;-73
2024/01/08 03:48:37;;;;;;;24.00;18.03;;;11.70;48.40;;;;;;4595164;19;20393;-73
2024/01/08 03:50:11;;;;;;;21.83;16.00;;;11.80;48.40;;;;;;4595827;19;20926;-73
2024/01/08 03:51:45;;;;;;;24.63;17.17;;;11.80;48.30;;;;;;4595897;19;20417;-73
2024/01/08 03:53:22;;;;;;;22.27;16.67;;;11.80;48.60;;;;;;4595957;19;20404;-73
2024/01/08 03:54:56;;;;;;;22.00;16.90;;;11.80;48.60;;;;;;4595658;19;20469;-73
2024/01/08 03:56:31;;;;;;;22.23;16.73;;;11.80;48.60;;;;;;4595827;19;20969;-73
2024/01/08 03:58:06;;;;;;;21.87;16.63;;;11.80;48.40;;;;;;4595778;19;20408;-73
2024/01/08 03:59:39;;;;;;;21.73;16.13;;;11.80;48.50;;;;;;4595756;19;20392;-73
2024/01/08 04:01:14;;;;;;;23.67;16.10;;;11.80;48.30;;;;;;4594391;19;20974;-73
2024/01/08 04:02:49;;;;;;;22.07;16.97;;;11.80;48.30;;;;;;4595455;19;20413;-73
2024/01/08 04:04:23;;;;;;;22.90;17.60;;;11.80;48.30;;;;;;4595395;19;20413;-73
2024/01/08 04:05:57;;;;;;;22.27;16.27;;;11.80;48.30;;;;;;4594367;19;20797;-73
2024/01/08 04:07:32;;;;;;;25.03;16.83;;;11.80;48.00;;;;;;4593954;19;20496;-73
2024/01/08 04:09:06;;;;;;;21.53;15.97;;;11.80;48.00;;;;;;4595863;19;20408;-73
2024/01/08 04:10:41;;;;;;;22.53;16.90;;;11.80;48.20;;;;;;4595550;19;20433;-73
2024/01/08 04:12:18;;;;;;;20.57;16.23;;;11.80;48.10;;;;;;4595602;19;20930;-73
2024/01/08 04:13:52;;;;;;;18.83;14.73;;;11.80;48.30;;;;;;4595714;19;20405;-73
2024/01/08 04:15:26;;;;;;;23.13;18.20;;;11.80;47.90;;;;;;4593842;19;20520;-73
2024/01/08 04:17:02;;;;;;;22.70;16.03;;;11.80;47.90;;;;;;4594124;19;20740;-73
2024/01/08 04:18:35;;;;;;;21.57;16.97;;;11.70;48.10;;;;;;4595043;19;20398;-73
2024/01/08 04:20:09;;;;;;;21.47;16.23;;;11.80;48.00;;;;;;4595340;19;20741;-73
2024/01/08 04:21:47;;;;;;;19.40;15.70;;;11.80;48.00;;;;;;4595377;19;20381;-73
2024/01/08 04:23:23;;;;;;;23.33;16.80;;;11.70;48.20;;;;;;4595508;19;20773;-73
2024/01/08 04:24:57;;;;;;;22.53;16.70;;;11.70;48.00;;;;;;4594403;19;20459;-73
2024/01/08 04:26:32;;;;;;;22.40;16.67;;;11.70;47.90;;;;;;4594854;19;20412;-73
2024/01/08 04:28:08;;;;;;;23.33;16.47;;;11.70;48.00;;;;;;4595170;19;20484;-72
2024/01/08 04:29:42;;;;;;;21.80;16.40;;;11.70;48.00;;;;;;4595050;19;20397;-73
2024/01/08 04:31:23;;;;;;;20.67;15.67;;;11.70;48.10;;;;;;4595180;19;20381;-73
2024/01/08 04:32:57;;;;;;;21.37;15.87;;;11.70;48.00;;;;;;4595047;19;20393;-73
2024/01/08 04:34:31;;;;;;;22.70;17.10;;;11.70;48.00;;;;;;4594574;19;20748;-73
2024/01/08 04:36:07;;;;;;;22.23;15.63;;;11.70;47.90;;;;;;4595103;19;20385;-73
2024/01/08 04:37:41;;;;;;;21.43;16.13;;;11.70;47.90;;;;;;4594974;19;20405;-73
2024/01/08 04:39:15;;;;;;;21.87;16.43;;;11.70;47.90;;;;;;4592620;19;21033;-73
2024/01/08 04:40:50;;;;;;;20.20;15.83;;;11.60;47.60;;;;;;4594119;19;20397;-73
2024/01/08 04:42:24;;;;;;;21.27;16.17;;;11.70;48.00;;;;;;4594504;19;20454;-72
2024/01/08 04:43:58;;;;;;;19.70;15.30;;;11.70;47.90;;;;;;4594844;19;20400;-73
2024/01/08 04:45:34;;;;;;;23.30;15.80;;;11.70;47.80;;;;;;4593424;19;20485;-73
2024/01/08 04:47:07;;;;;;;20.10;15.10;;;11.70;47.80;;;;;;4593825;19;20427;-72
2024/01/08 04:48:42;;;;;;;19.97;14.60;;;11.70;47.80;;;;;;4594749;19;20434;-72
2024/01/08 04:50:18;;;;;;;20.97;16.13;;;11.80;47.80;;;;;;4593487;19;20377;-75
2024/01/08 04:51:52;;;;;;;20.57;14.70;;;11.90;47.90;;;;;;4593337;19;20397;-74
2024/01/08 04:53:26;;;;;;;20.93;15.33;;;12.00;47.90;;;;;;4593566;19;20413;-73
2024/01/08 04:55:01;;;;;;;20.77;15.30;;;12.00;47.70;;;;;;4593717;19;20429;-74
2024/01/08 04:56:35;;;;;;;22.67;16.43;;;12.10;47.60;;;;;;4593311;19;20430;-74
2024/01/08 04:58:09;;;;;;;19.83;15.40;;;12.30;47.80;;;;;;4594167;19;20401;-74
2024/01/08 04:59:45;;;;;;;20.90;15.63;;;12.30;47.40;;;;;;4593310;19;20665;-73
2024/01/08 05:01:19;;;;;;;18.27;13.93;;;12.50;47.40;;;;;;4594203;19;20393;-73
2024/01/08 05:02:53;;;;;;;20.57;14.70;;;12.60;47.40;;;;;;4594528;19;20487;-73
2024/01/08 05:04:29;;;;;;;21.87;15.80;;;12.60;47.30;;;;;;4594551;19;20750;-73
2024/01/08 05:06:03;;;;;;;20.67;15.77;;;12.60;47.30;;;;;;4594673;19;20392;-73
2024/01/08 05:07:37;;;;;;;19.10;14.47;;;12.50;46.80;;;;;;4593290;19;20428;-73
2024/01/08 05:09:13;;;;;;;21.17;16.10;;;12.60;46.80;;;;;;4594627;19;20397;-74
2024/01/08 05:10:47;;;;;;;19.77;14.37;;;12.60;46.80;;;;;;4594276;19;20417;-74
2024/01/08 05:12:21;;;;;;;19.87;15.03;;;12.60;46.60;;;;;;4592760;19;20985;-74
2024/01/08 05:13:56;;;;;;;21.17;15.80;;;12.60;46.30;;;;;;4593887;19;20381;-73
2024/01/08 05:15:32;;;;;;;21.37;15.83;;;12.60;46.20;;;;;;4592740;19;20453;-74
2024/01/08 05:17:08;;;;;;;20.23;14.93;;;12.70;46.40;;;;;;4594476;19;20524;-74
2024/01/08 05:18:44;;;;;;;20.70;15.37;;;12.70;46.60;;;;;;4594479;19;20408;-74
2024/01/08 05:20:18;;;;;;;18.67;14.10;;;12.70;46.50;;;;;;4593073;19;20439;-74
2024/01/08 05:21:53;;;;;;;19.50;15.63;;;12.70;46.40;;;;;;4592725;19;20433;-74
2024/01/08 05:23:30;;;;;;;20.73;15.70;;;12.60;46.60;;;;;;4594018;19;20483;-74
2024/01/08 05:25:05;;;;;;;19.43;15.30;;;12.60;46.50;;;;;;4593146;19;20556;-74
2024/01/08 05:26:39;;;;;;;22.23;15.50;;;12.60;46.40;;;;;;4593466;19;20448;-73
2024/01/08 05:28:14;;;;;;;20.30;15.63;;;12.50;46.30;;;;;;4593950;19;20445;-73
2024/01/08 05:29:49;;;;;;;21.07;15.37;;;12.50;45.90;;;;;;4593912;19;20420;-74
2024/01/08 05:31:23;;;;;;;20.77;15.40;;;12.40;45.80;;;;;;4594136;19;20388;-74
2024/01/08 05:32:58;;;;;;;21.07;16.60;;;12.40;45.80;;;;;;4594136;19;20385;-74
2024/01/08 05:34:32;;;;;;;22.33;16.63;;;12.30;45.80;;;;;;4593475;19;20709;-74
2024/01/08 05:36:06;;;;;;;22.33;16.53;;;12.30;46.00;;;;;;4593764;19;20420;-74
2024/01/08 05:37:41;;;;;;;20.63;15.40;;;12.30;46.10;;;;;;4594092;19;20385;-74
2024/01/08 05:39:16;;;;;;;22.60;15.73;;;12.30;45.80;;;;;;4592310;19;20488;-74
2024/01/08 05:40:50;;;;;;;21.73;16.30;;;12.30;46.00;;;;;;4593290;19;20392;-74
2024/01/08 05:42:28;;;;;;;22.40;15.30;;;12.30;46.00;;;;;;4593691;19;20412;-74
2024/01/08 05:44:01;;;;;;;20.03;14.23;;;12.20;45.70;;;;;;4593881;19;20415;-74
2024/01/08 05:45:35;;;;;;;18.83;14.90;;;12.20;45.80;;;;;;4592338;19;20445;-74
2024/01/08 05:47:10;;;;;;;20.57;14.87;;;12.20;45.80;;;;;;4592747;19;20946;-74
2024/01/08 05:48:44;;;;;;;21.43;15.67;;;12.20;45.60;;;;;;4593471;19;20415;-74
2024/01/08 05:50:18;;;;;;;20.17;14.53;;;12.10;45.40;;;;;;4590967;19;20417;-74
2024/01/08 05:51:54;;;;;;;19.97;14.97;;;12.10;45.50;;;;;;4592161;19;20377;-74
2024/01/08 05:53:29;;;;;;;21.87;15.60;;;12.10;45.60;;;;;;4592120;19;20417;-74
2024/01/08 05:55:04;;;;;;;22.17;15.80;;;12.00;45.40;;;;;;4592618;19;20441;-74
2024/01/08 05:56:39;;;;;;;19.60;14.30;;;12.10;45.60;;;;;;4593412;19;20373;-72
2024/01/08 05:58:13;;;;;;;21.07;15.20;;;12.00;45.80;;;;;;4593204;19;20424;-74
2024/01/08 05:59:47;;;;;;;20.37;14.80;;;12.00;45.80;;;;;;4593243;19;20527;-73
2024/01/08 06:01:22;;;;;;;24.33;15.60;;;12.00;45.70;;;;;;4593484;19;20706;-73
2024/01/08 06:02:56;;;;;;;21.03;14.70;;;12.00;45.80;;;;;;4593487;19;20415;-74
2024/01/08 06:04:31;;;;;;;18.80;13.63;;;12.00;45.60;;;;;;4591506;19;20492;-74
2024/01/08 06:06:06;;;;;;;22.60;16.13;;;12.00;45.80;;;;;;4592875;19;20369;-73
2024/01/08 06:07:40;;;;;;;18.93;14.63;;;12.00;45.70;;;;;;4591968;19;20741;-74
2024/01/08 06:09:14;;;;;;;21.43;15.40;;;12.00;45.60;;;;;;4593092;19;20392;-74
2024/01/08 06:10:50;;;;;;;20.50;14.30;;;12.10;45.50;;;;;;4593350;19;20416;-74
2024/01/08 06:12:25;;;;;;;19.00;13.90;;;12.10;45.40;;;;;;4593224;19;20433;-74
2024/01/08 06:13:59;;;;;;;21.77;14.90;;;12.30;45.40;;;;;;4591877;19;20414;-74
2024/01/08 06:15:35;;;;;;;20.37;14.33;;;12.30;45.20;;;;;;4591344;19;20453;-73
2024/01/08 06:17:10;;;;;;;20.20;14.73;;;12.40;45.20;;;;;;4591596;19;20954;-74
2024/01/08 06:18:44;;;;;;;19.57;14.33;;;12.50;45.40;;;;;;4592495;19;20734;-74
2024/01/08 06:20:19;;;;;;;21.73;14.77;;;12.60;45.10;;;;;;4591429;19;20808;-74
2024/01/08 06:21:53;;;;;;;20.17;15.20;;;12.60;44.90;;;;;;4592694;19;20388;-74
2024/01/08 06:23:28;;;;;;;18.07;14.33;;;12.70;44.90;;;;;;4592675;19;20477;-74
2024/01/08 06:25:04;;;;;;;20.37;15.67;;;12.80;45.00;;;;;;4592358;19;20429;-74
2024/01/08 06:26:38;;;;;;;20.13;15.27;;;12.90;45.00;;;;;;4592415;19;20435;-74
2024/01/08 06:28:12;;;;;;;20.27;14.00;;;13.00;44.90;;;;;;4592906;19;20440;-74
2024/01/08 06:29:47;;;;;;;18.67;14.27;;;13.10;45.00;;;;;;4592525;19;20513;-72
2024/01/08 06:31:22;;;;;;;19.50;14.63;;;13.20;44.90;;;;;;4592668;19;20428;-74
2024/01/08 06:32:56;;;;;;;20.00;15.20;;;13.20;44.60;;;;;;4592627;19;20436;-74
2024/01/08 06:34:31;;;;;;;17.07;14.07;;;13.20;44.50;;;;;;4592289;19;20377;-74
2024/01/08 06:36:05;;;;;;;21.40;15.93;;;13.10;44.90;;;;;;4592523;19;20819;-74
2024/01/08 06:37:41;;;;;;;19.93;14.93;;;13.10;44.20;;;;;;4592484;19;20456;-74
2024/01/08 06:39:16;;;;;;;19.67;15.40;;;13.10;44.40;;;;;;4591172;19;20394;-74
2024/01/08 06:40:50;;;;;;;21.87;14.97;;;13.00;44.40;;;;;;4592124;19;20408;-74
2024/01/08 06:42:24;;;;;;;20.23;16.03;;;13.00;44.70;;;;;;4592383;19;20730;-74
2024/01/08 06:43:59;;;;;;;20.77;14.77;;;13.00;44.60;;;;;;4592760;19;20412;-74
2024/01/08 06:45:32;;;;;;;21.70;15.00;;;12.90;44.80;;;;;;4591338;19;20543;-74
2024/01/08 06:47:07;;;;;;;19.30;15.50;;;12.80;44.90;;;;;;4591712;19;20528;-74
2024/01/08 06:48:42;;;;;;;21.27;16.60;;;12.80;44.80;;;;;;4592378;19;20460;-74
2024/01/08 06:50:16;;;;;;;21.23;15.70;;;12.80;44.60;;;;;;4592332;19;20389;-74
2024/01/08 06:51:51;;;;;;;21.77;15.33;;;12.70;44.30;;;;;;4592277;19;20431;-74
2024/01/08 06:53:26;;;;;;;19.00;14.43;;;12.70;44.70;;;;;;4592328;19;20408;-74
2024/01/08 06:55:00;;;;;;;19.13;15.23;;;12.60;44.70;;;;;;4591489;19;20781;-74
2024/01/08 06:56:35;;;;;;;18.70;13.67;;;12.60;44.70;;;;;;4592239;19;20393;-74
2024/01/08 06:58:10;;;;;;;22.07;14.67;;;12.60;44.60;;;;;;4592185;19;20377;-74
2024/01/08 06:59:44;;;;;;;21.57;15.57;;;12.60;44.50;;;;;;4592109;19;20408;-74
2024/01/08 07:01:18;;;;;;;24.33;16.83;;;12.50;44.60;;;;;;4591257;19;20444;-74
2024/01/08 07:02:54;;;;;;;22.30;15.93;;;12.50;44.60;;;;;;4592141;19;20419;-74
2024/01/08 07:04:28;;;;;;;22.40;15.40;;;12.50;44.60;;;;;;4590391;19;20433;-74
2024/01/08 07:06:02;;;;;;;23.87;17.03;;;12.50;44.40;;;;;;4590683;19;20409;-74
2024/01/08 07:07:37;;;;;;;23.97;16.17;;;12.50;44.50;;;;;;4589666;19;20445;-74
2024/01/08 07:09:13;;;;;;;25.23;16.83;;;12.50;44.30;;;;;;4591768;19;20377;-74
2024/01/08 07:10:47;;;;;;;24.00;16.47;;;12.50;44.10;;;;;;4591992;19;20393;-73
2024/01/08 07:12:23;;;;;;;24.57;16.00;;;12.50;44.10;;;;;;4592280;19;20389;-74
2024/01/08 07:13:58;;;;;;;22.57;17.57;;;12.40;44.10;;;;;;4592191;19;20527;-74
2024/01/08 07:15:39;;;;;;;22.93;16.13;;;12.40;44.20;;;;;;4590856;19;20480;-74
2024/01/08 07:17:15;;;;;;;21.43;15.77;;;12.40;44.40;;;;;;4591892;19;20883;-73
2024/01/08 07:18:49;;;;;;;25.00;16.40;;;12.40;44.10;;;;;;4591764;19;20392;-74
2024/01/08 07:20:23;;;;;;;26.87;17.53;;;12.40;44.20;;;;;;4591732;19;20746;-74
2024/01/08 07:21:59;;;;;;;22.33;16.40;;;12.40;44.10;;;;;;4591795;19;20397;-74
2024/01/08 07:23:33;;;;;;;23.27;16.37;;;12.30;44.10;;;;;;4591716;19;20405;-74
2024/01/08 07:25:08;;;;;;;23.43;16.40;;;12.30;43.90;;;;;;4590944;19;20453;-74
2024/01/08 07:26:45;;;;;;;27.17;16.63;;;12.30;43.80;;;;;;4591384;19;20903;-75
2024/01/08 07:28:20;;;;;;;25.03;16.63;;;12.20;43.90;;;;;;4591641;19;20420;-75
2024/01/08 07:29:56;;;;;;;26.60;17.73;;;12.20;44.10;;;;;;4591642;19;20401;-73
2024/01/08 07:31:31;;;;;;;24.93;16.47;;;12.20;44.30;;;;;;4591643;19;20377;-73
2024/01/08 07:33:06;;;;;;;23.87;17.23;;;12.20;44.20;;;;;;4591566;19;20421;-67
2024/01/08 07:34:40;;;;;;;25.73;16.77;;;12.20;44.40;;;;;;4591282;19;20433;-73
2024/01/08 07:36:17;;;;;;;24.27;16.77;;;12.20;44.50;;;;;;4592252;19;20945;-73
2024/01/08 07:37:55;;;;;;;23.07;16.97;;;12.20;44.40;;;;;;4591505;19;20492;-74
2024/01/08 07:39:29;;;;;;;24.50;17.30;;;12.20;44.10;;;;;;4591513;19;20408;-75
2024/01/08 07:41:04;;;;;;;24.93;17.63;;;12.10;44.10;;;;;;4591725;19;21026;-74
2024/01/08 07:42:38;;;;;;;22.97;16.37;;;12.10;44.20;;;;;;4591377;19;20497;-75
2024/01/08 07:44:12;;;;;;;24.57;16.83;;;12.10;44.20;;;;;;4591372;19;20728;-69
2024/01/08 07:45:49;;;;;;;23.33;16.93;;;12.00;44.00;;;;;;4591431;19;20496;-69
2024/01/08 07:47:23;;;;;;;22.20;15.13;;;12.10;44.10;;;;;;4590685;19;20500;-73
2024/01/08 07:48:58;;;;;;;23.43;17.13;;;12.00;43.80;;;;;;4591462;19;20401;-74
2024/01/08 07:50:34;;;;;;;23.37;16.40;;;12.00;44.30;;;;;;4590063;19;20373;-75
2024/01/08 07:52:08;;;;;;;24.50;17.80;;;12.00;44.20;;;;;;4590924;19;20419;-72
2024/01/08 07:53:42;;;;;;;26.33;17.50;;;12.00;44.10;;;;;;4591256;19;20396;-70
2024/01/08 07:55:18;;;;;;;23.83;16.67;;;11.90;43.90;;;;;;4590186;19;20433;-71
2024/01/08 07:56:52;;;;;;;23.53;16.63;;;11.90;43.90;;;;;;4589817;19;20911;-72
2024/01/08 07:58:26;;;;;;;23.67;17.63;;;11.90;43.90;;;;;;4589757;19;20393;-71
2024/01/08 08:00:01;;;;;;;22.67;16.10;;;11.90;44.10;;;;;;4591269;19;20406;-69
2024/01/08 08:01:36;;;;;;;26.07;18.27;;;11.90;44.30;;;;;;4590160;19;20443;-70
2024/01/08 08:03:58;;;;;;;24.73;17.70;;;11.90;44.50;;;;;;4589490;19;20704;-72
2024/01/08 08:05:34;;;;;;;25.53;17.37;;;11.90;44.70;;;;;;4588272;19;20457;-78
2024/01/08 08:07:08;;;;;;;27.03;17.10;;;11.80;44.30;;;;;;4589018;19;20466;-78
2024/01/08 08:08:42;;;;;;;28.67;18.00;;;11.80;44.00;;;;;;4590613;19;20451;-73
2024/01/08 08:10:17;;;;;;;25.60;18.07;;;11.80;43.80;;;;;;4591060;19;20361;-71
2024/01/08 08:11:51;;;;;;;26.57;17.37;;;11.80;44.20;;;;;;4589803;19;20459;-73
2024/01/08 08:13:25;;;;;;;26.80;17.07;;;11.70;44.10;;;;;;4591604;19;20389;-70
2024/01/08 08:15:00;;;;;;;23.30;17.20;;;11.70;44.10;;;;;;4594396;19;20465;-70
2024/01/08 08:16:35;;;;;;;22.00;15.93;;;11.60;44.20;;;;;;4595384;19;20686;-73